Northway Airport
PAOR : now visible

Aeroporto :











RITROVATECI SU...

 
LOGIN :

Iscrizione | Disclaimer

   EN    FR    IT 

 









Sommario :    VFR   VFR Marginale   IFR   IFR Intensivo   IFR Molto Intensivo
Visibilità : 
Base nubi : 
>= 8 km
>= 3000ft
5 / 8 km
1000 / 3000 ft
1500m / 5 km
500 / 1000 ft
800 / 1500m
200 / 500 ft
< 800m
< 200 ft
Simboli :   Temporali  Nebbia  Neve Forte  Precipitazioni Forti  Vento > 20 kt






- Altitudine del aeroporto : 1715 ft
- Codice IATA : ORT


PAOR - Northway

ULTIMO METAR :
  • 051053Z 00000KT 10SM SCT065 BKN100 12/10 A3003 RMK AO2 SLP164 T01220100

METARs OBSOLETI :
  • 050953Z 00000KT 10SM FEW070 BKN095 13/11 A3002 RMK AO2 SLP162 T01330106
  • 050853Z 25005KT 10SM FEW075 BKN100 15/10 A3002 RMK AO2 SLP160 60004 T01500100 402500061 51010

TAF PAOR
Valido dal 05 a 06 ore il 06 a 06 ore UTC


050539Z 0506/0606 30005KT P6SM VCSH FEW100
FM051300 30005KT 5SM -SHRA BR BKN025
FIR PAZA / America del Nord



MetMap, La meteo Aeronautica in un colpo d'occhio ! - Copyright ORBIFLY Dicembre 2007 - Disclaimer

ORBIFLY MET'MAP TEAM :

Programmazione e sviluppo : Alexandra Zaïnal
Concezione : Baudouin d'Aumeries
Aiuto per la programmazione : Marc-Olivier Méhu
Supporto tecnico e logistico : Manuel Goepfert
Aiuto per la traduzione : Arnaldo La Scala

Contatto : metmap@orbifly.com




FONTI E CREDITI :

   NOAA       Earth
Advisory